createdAt,value
2018-05-31T00:00:02.888Z,0
2018-05-31T00:05:03.227Z,0
2018-05-31T00:10:04.261Z,0
2018-05-31T00:15:03.017Z,0
2018-05-31T00:20:02.952Z,0
2018-05-31T00:25:03.848Z,0
2018-05-31T00:30:02.781Z,0
2018-05-31T00:35:03.559Z,0
2018-05-31T00:40:03.216Z,0
2018-05-31T00:45:02.783Z,0
2018-05-31T00:50:03.411Z,0
2018-05-31T00:55:02.967Z,0
2018-05-31T01:00:02.749Z,0
2018-05-31T01:05:04.447Z,0
2018-05-31T01:10:03.269Z,0
2018-05-31T01:15:03.662Z,0
2018-05-31T01:20:03.012Z,0
2018-05-31T01:25:02.822Z,0
2018-05-31T01:30:03.578Z,0
2018-05-31T01:35:04.122Z,0
2018-05-31T01:40:02.917Z,0
2018-05-31T01:45:03.718Z,0
2018-05-31T01:50:03.349Z,0
2018-05-31T01:55:03.015Z,0
2018-05-31T02:00:04.512Z,0
2018-05-31T02:05:02.713Z,0
2018-05-31T02:10:03.534Z,0
2018-05-31T02:15:03.177Z,0
2018-05-31T02:20:02.799Z,0
2018-05-31T02:25:03.534Z,0
2018-05-31T02:30:03.278Z,0
2018-05-31T02:35:03.312Z,0
2018-05-31T02:40:03.163Z,0
2018-05-31T02:45:03.359Z,0
2018-05-31T02:50:02.950Z,0
2018-05-31T02:55:05.225Z,0
2018-05-31T03:00:04.041Z,0
2018-05-31T03:05:02.755Z,0
2018-05-31T03:10:02.906Z,0
2018-05-31T03:15:03.692Z,1
2018-05-31T03:20:03.755Z,0
2018-05-31T03:25:04.110Z,0
2018-05-31T03:30:02.889Z,0
2018-05-31T03:35:03.671Z,0
2018-05-31T03:40:05.330Z,0
2018-05-31T03:45:03.595Z,0
2018-05-31T03:50:03.215Z,0
2018-05-31T03:55:03.006Z,0
2018-05-31T04:00:03.785Z,0
2018-05-31T04:05:03.394Z,0
2018-05-31T04:10:03.060Z,0
2018-05-31T04:15:03.265Z,0
2018-05-31T04:20:03.235Z,0
2018-05-31T04:25:04.741Z,0
2018-05-31T04:30:03.581Z,0
2018-05-31T04:35:03.666Z,0
2018-05-31T04:40:03.610Z,0
2018-05-31T04:45:03.467Z,0
2018-05-31T04:50:03.077Z,0
2018-05-31T04:55:02.869Z,0
2018-05-31T05:00:03.680Z,0
2018-05-31T05:05:03.954Z,0
2018-05-31T05:10:02.807Z,0
2018-05-31T05:15:03.639Z,0
2018-05-31T05:20:03.685Z,0
2018-05-31T05:25:03.613Z,1
2018-05-31T05:30:03.217Z,0
2018-05-31T05:35:02.837Z,0
2018-05-31T05:40:03.531Z,0
2018-05-31T05:45:03.759Z,0
2018-05-31T05:50:03.858Z,0
2018-05-31T05:55:02.911Z,0
2018-05-31T06:00:03.257Z,0
2018-05-31T06:05:02.861Z,0
2018-05-31T06:10:04.038Z,0
2018-05-31T06:15:02.772Z,0
2018-05-31T06:20:03.561Z,1
2018-05-31T06:25:03.475Z,0
2018-05-31T06:30:04.974Z,0
2018-05-31T06:35:03.157Z,0
2018-05-31T06:40:02.972Z,0
2018-05-31T06:45:03.561Z,0
2018-05-31T06:50:03.174Z,0
2018-05-31T06:55:02.929Z,0
2018-05-31T07:00:03.491Z,0
2018-05-31T07:05:03.081Z,0
2018-05-31T07:10:02.954Z,0
2018-05-31T07:15:03.644Z,0
2018-05-31T07:20:03.288Z,0
2018-05-31T07:25:02.925Z,0
2018-05-31T07:30:03.714Z,0
2018-05-31T07:35:03.468Z,1
2018-05-31T07:40:03.242Z,0
2018-05-31T07:45:02.830Z,0
2018-05-31T07:50:03.445Z,1
2018-05-31T07:55:03.037Z,0
2018-05-31T08:00:02.898Z,0
2018-05-31T08:05:03.654Z,2
2018-05-31T08:10:03.307Z,2
2018-05-31T08:15:02.815Z,2
2018-05-31T08:20:03.534Z,4
2018-05-31T08:25:03.109Z,2
2018-05-31T08:30:02.760Z,2
2018-05-31T08:35:03.548Z,1
2018-05-31T08:40:03.201Z,2
2018-05-31T08:45:02.778Z,0
2018-05-31T08:50:03.370Z,0
2018-05-31T08:55:02.983Z,0
2018-05-31T09:00:03.708Z,0
2018-05-31T09:05:03.337Z,1
2018-05-31T09:10:02.942Z,0
2018-05-31T09:15:04.243Z,0
2018-05-31T09:20:02.813Z,1
2018-05-31T09:25:03.433Z,3
2018-05-31T09:30:03.044Z,2
2018-05-31T09:35:03.000Z,1
2018-05-31T09:40:02.779Z,2
2018-05-31T09:45:03.433Z,2
2018-05-31T09:50:03.009Z,1
2018-05-31T09:55:03.605Z,0
2018-05-31T10:00:03.204Z,1
2018-05-31T10:05:02.923Z,3
2018-05-31T10:10:03.546Z,2
2018-05-31T10:15:03.113Z,2
2018-05-31T10:20:02.724Z,3
2018-05-31T10:25:03.293Z,0
2018-05-31T10:30:02.915Z,0
2018-05-31T10:35:03.560Z,0
2018-05-31T10:40:03.282Z,1
2018-05-31T10:45:02.904Z,1
2018-05-31T10:50:03.515Z,0
2018-05-31T10:55:03.121Z,2
2018-05-31T11:00:02.724Z,0
2018-05-31T11:05:03.425Z,0
2018-05-31T11:10:03.070Z,0
2018-05-31T11:15:02.910Z,3
2018-05-31T11:20:02.902Z,0
2018-05-31T11:25:02.864Z,2
2018-05-31T11:30:03.467Z,2
2018-05-31T11:35:03.022Z,3
2018-05-31T11:40:02.672Z,2
2018-05-31T11:45:03.314Z,5
2018-05-31T11:50:02.906Z,3
2018-05-31T11:55:03.530Z,3
2018-05-31T12:00:03.151Z,2
2018-05-31T12:05:02.766Z,5
2018-05-31T12:10:03.405Z,7
2018-05-31T12:15:02.960Z,5
2018-05-31T12:20:03.561Z,6
2018-05-31T12:25:03.165Z,7
2018-05-31T12:30:02.772Z,3
2018-05-31T12:35:03.362Z,3
2018-05-31T12:40:02.961Z,3
2018-05-31T12:45:02.690Z,5
2018-05-31T12:50:03.293Z,2
2018-05-31T12:55:02.843Z,4
2018-05-31T13:00:03.421Z,3
2018-05-31T13:05:02.989Z,4
2018-05-31T13:10:03.624Z,2
2018-05-31T13:15:03.182Z,2
2018-05-31T13:20:02.785Z,3
2018-05-31T13:25:03.418Z,3
2018-05-31T13:30:03.035Z,0
2018-05-31T13:35:02.664Z,1
2018-05-31T13:40:03.300Z,4
2018-05-31T13:45:02.811Z,5
2018-05-31T13:50:03.370Z,2
2018-05-31T13:55:02.947Z,3
2018-05-31T14:00:03.495Z,2
2018-05-31T14:05:03.254Z,5
2018-05-31T14:10:02.930Z,3
2018-05-31T14:15:03.564Z,3
2018-05-31T14:20:03.099Z,2
2018-05-31T14:25:02.703Z,1
2018-05-31T14:30:03.315Z,3
2018-05-31T14:35:02.911Z,4
2018-05-31T14:40:03.587Z,4
2018-05-31T14:45:03.599Z,3
2018-05-31T14:50:03.191Z,2
2018-05-31T14:55:02.758Z,3
2018-05-31T15:00:03.376Z,3
2018-05-31T15:05:02.903Z,3
2018-05-31T15:10:03.581Z,1
2018-05-31T15:15:03.188Z,2
2018-05-31T15:20:02.799Z,3
2018-05-31T15:25:03.405Z,3
2018-05-31T15:30:02.994Z,2
2018-05-31T15:35:03.622Z,2
2018-05-31T15:40:03.272Z,1
2018-05-31T15:45:02.833Z,2
2018-05-31T15:50:03.458Z,2
2018-05-31T15:55:03.130Z,3
2018-05-31T16:00:02.688Z,4
2018-05-31T16:05:03.357Z,3
2018-05-31T16:10:03.025Z,7
2018-05-31T16:15:02.904Z,2
2018-05-31T16:20:03.998Z,3
2018-05-31T16:25:03.658Z,2
2018-05-31T16:30:03.277Z,3
2018-05-31T16:35:03.110Z,4
2018-05-31T16:40:02.958Z,3
2018-05-31T16:45:03.532Z,1
2018-05-31T16:50:03.130Z,1
2018-05-31T16:55:02.904Z,2
2018-05-31T17:00:03.527Z,0
2018-05-31T17:05:03.116Z,0
2018-05-31T17:10:03.084Z,0
2018-05-31T17:15:02.676Z,4
2018-05-31T17:20:03.241Z,2
2018-05-31T17:25:02.830Z,2
2018-05-31T17:30:03.382Z,2
2018-05-31T17:35:02.981Z,3
2018-05-31T17:40:03.630Z,3
2018-05-31T17:45:03.226Z,2
2018-05-31T17:50:02.908Z,0
2018-05-31T17:55:03.510Z,3
2018-05-31T18:00:03.032Z,2
2018-05-31T18:05:03.212Z,4
2018-05-31T18:10:03.278Z,2
2018-05-31T18:15:02.795Z,2
2018-05-31T18:20:03.416Z,2
2018-05-31T18:25:02.960Z,2
2018-05-31T18:30:03.693Z,3
2018-05-31T18:35:03.305Z,2
2018-05-31T18:40:03.202Z,1
2018-05-31T18:45:02.976Z,0
2018-05-31T18:50:03.577Z,2
2018-05-31T18:55:03.172Z,0
2018-05-31T19:00:02.763Z,0
2018-05-31T19:05:03.418Z,1
2018-05-31T19:10:03.090Z,0
2018-05-31T19:15:02.695Z,0
2018-05-31T19:20:03.267Z,0
2018-05-31T19:25:02.822Z,0
2018-05-31T19:30:03.386Z,0
2018-05-31T19:35:03.085Z,0
2018-05-31T19:40:02.702Z,0
2018-05-31T19:45:03.280Z,0
2018-05-31T19:50:02.846Z,0
2018-05-31T19:55:03.403Z,0
2018-05-31T20:00:02.995Z,0
2018-05-31T20:05:02.666Z,0
2018-05-31T20:10:03.285Z,0
2018-05-31T20:15:02.871Z,0
2018-05-31T20:20:03.536Z,0
2018-05-31T20:25:03.105Z,0
2018-05-31T20:30:02.752Z,0
2018-05-31T20:35:03.395Z,0
2018-05-31T20:40:03.063Z,0
2018-05-31T20:45:02.691Z,0
2018-05-31T20:50:03.288Z,0
2018-05-31T20:55:02.839Z,0
2018-05-31T21:00:03.478Z,0
2018-05-31T21:05:03.044Z,0
2018-05-31T21:10:02.731Z,0
2018-05-31T21:15:03.455Z,0
2018-05-31T21:20:03.230Z,0
2018-05-31T21:25:03.029Z,0
2018-05-31T21:30:02.628Z,0
2018-05-31T21:35:03.249Z,0
2018-05-31T21:40:02.951Z,0
2018-05-31T21:45:03.573Z,0
2018-05-31T21:50:03.149Z,0
2018-05-31T21:55:02.708Z,0
2018-05-31T22:00:03.345Z,0
2018-05-31T22:05:02.963Z,0
2018-05-31T22:10:03.616Z,0
2018-05-31T22:15:03.178Z,0
2018-05-31T22:20:02.793Z,0
2018-05-31T22:25:03.300Z,0
2018-05-31T22:30:02.838Z,0
2018-05-31T22:35:03.495Z,0
2018-05-31T22:40:03.129Z,0
2018-05-31T22:45:02.686Z,0
2018-05-31T22:50:03.285Z,0
2018-05-31T22:55:02.827Z,0
2018-05-31T23:00:03.363Z,0
2018-05-31T23:05:02.614Z,0
2018-05-31T23:10:03.250Z,0
2018-05-31T23:15:02.865Z,0
2018-05-31T23:20:03.518Z,0
2018-05-31T23:25:03.113Z,0
2018-05-31T23:30:02.659Z,0
2018-05-31T23:35:03.279Z,0
2018-05-31T23:40:02.926Z,0
2018-05-31T23:45:03.501Z,0
2018-05-31T23:50:03.126Z,0
2018-05-31T23:55:02.707Z,0
